createdAt,value
2022-12-26T00:01:14.668Z,17.10
2022-12-26T00:03:43.001Z,16.97
2022-12-26T00:06:16.120Z,15.40
2022-12-26T00:08:44.379Z,16.50
2022-12-26T00:11:13.505Z,16.43
2022-12-26T00:13:42.360Z,16.07
2022-12-26T00:16:12.228Z,15.33
2022-12-26T00:18:40.908Z,18.37
2022-12-26T00:21:10.690Z,15.70
2022-12-26T00:23:41.206Z,16.47
2022-12-26T00:26:11.229Z,15.10
2022-12-26T00:28:39.935Z,14.53
2022-12-26T00:31:10.664Z,13.33
2022-12-26T00:33:39.952Z,13.20
2022-12-26T00:36:11.096Z,13.83
2022-12-26T00:38:41.903Z,10.93
2022-12-26T00:41:11.212Z,11.37
2022-12-26T00:43:39.647Z,12.17
2022-12-26T00:46:09.074Z,10.67
2022-12-26T00:48:37.415Z,13.43
2022-12-26T00:51:06.499Z,11.43
2022-12-26T00:53:35.203Z,12.37
2022-12-26T00:56:05.376Z,12.33
2022-12-26T00:58:33.840Z,10.87
2022-12-26T01:01:08.308Z,11.70
2022-12-26T01:03:36.720Z,10.30
2022-12-26T01:06:06.134Z,9.30
2022-12-26T01:08:34.469Z,8.73
2022-12-26T01:11:07.660Z,11.17
2022-12-26T01:13:37.127Z,9.33
2022-12-26T01:16:07.052Z,10.80
2022-12-26T01:18:36.357Z,9.73
2022-12-26T01:21:06.870Z,8.43
2022-12-26T01:23:35.138Z,11.13
2022-12-26T01:26:18.773Z,7.73
2022-12-26T01:28:49.833Z,7.73
2022-12-26T01:31:18.669Z,7.83
2022-12-26T01:33:47.402Z,8.03
2022-12-26T01:36:16.516Z,9.37
2022-12-26T01:38:45.160Z,9.30
2022-12-26T01:41:20.949Z,8.53
2022-12-26T01:43:59.462Z,9.87
2022-12-26T01:46:33.774Z,7.93
2022-12-26T01:49:08.043Z,7.10
2022-12-26T01:51:41.163Z,10.30
2022-12-26T01:54:40.352Z,7.13
2022-12-26T01:57:05.949Z,7.37
2022-12-26T01:59:38.031Z,7.43
2022-12-26T02:02:06.900Z,7.23
2022-12-26T02:04:59.742Z,8.37
2022-12-26T02:07:28.485Z,7.53
2022-12-26T02:09:57.115Z,8.93
2022-12-26T02:12:35.551Z,8.73
2022-12-26T02:15:10.538Z,7.70
2022-12-26T02:17:39.721Z,6.90
2022-12-26T02:20:20.304Z,8.10
2022-12-26T02:23:26.171Z,8.43
2022-12-26T02:26:26.965Z,6.83
2022-12-26T02:29:28.973Z,8.07
2022-12-26T02:32:09.507Z,6.40
2022-12-26T02:34:51.070Z,6.30
2022-12-26T02:37:32.454Z,7.50
2022-12-26T02:40:38.816Z,6.77
2022-12-26T02:43:17.298Z,6.13
2022-12-26T02:46:11.593Z,6.93
2022-12-26T02:48:48.356Z,7.00
2022-12-26T02:51:44.887Z,7.47
2022-12-26T02:54:44.419Z,9.30
2022-12-26T02:57:38.051Z,8.23
2022-12-26T03:00:30.378Z,8.47
2022-12-26T03:03:21.776Z,9.73
2022-12-26T03:06:14.380Z,11.37
2022-12-26T03:09:05.675Z,13.67
2022-12-26T03:11:56.876Z,15.93
2022-12-26T03:14:28.488Z,14.70
2022-12-26T03:17:30.425Z,15.83
2022-12-26T03:20:02.976Z,16.77
2022-12-26T03:22:40.226Z,16.00
2022-12-26T03:25:28.894Z,16.87
2022-12-26T03:27:57.564Z,16.73
2022-12-26T03:30:44.085Z,15.50
2022-12-26T03:33:26.485Z,16.17
2022-12-26T03:35:55.187Z,14.87
2022-12-26T03:38:31.760Z,13.90
2022-12-26T03:41:25.109Z,13.07
2022-12-26T03:44:25.673Z,12.17
2022-12-26T03:47:22.721Z,12.67
2022-12-26T03:50:12.598Z,11.63
2022-12-26T03:53:03.820Z,9.40
2022-12-26T03:56:00.566Z,8.97
2022-12-26T03:58:51.188Z,7.93
2022-12-26T04:01:52.128Z,7.40
2022-12-26T04:04:40.900Z,10.77
2022-12-26T04:07:29.947Z,8.40
2022-12-26T04:10:20.467Z,7.83
2022-12-26T04:13:09.704Z,6.73
2022-12-26T04:16:02.996Z,7.13
2022-12-26T04:19:04.912Z,6.50
2022-12-26T04:21:57.927Z,6.73
2022-12-26T04:24:49.207Z,7.67
2022-12-26T04:27:36.623Z,7.80
2022-12-26T04:30:25.049Z,7.93
2022-12-26T04:33:14.648Z,7.90
2022-12-26T04:36:06.944Z,9.13
2022-12-26T04:38:58.163Z,7.13
2022-12-26T04:41:45.914Z,6.30
2022-12-26T04:44:15.671Z,5.63
2022-12-26T04:46:47.694Z,6.97
2022-12-26T04:49:35.756Z,6.57
2022-12-26T04:52:09.035Z,9.77
2022-12-26T04:54:37.588Z,5.73
2022-12-26T04:57:06.558Z,5.70
2022-12-26T04:59:35.060Z,5.67
2022-12-26T05:02:22.189Z,9.17
2022-12-26T05:05:07.999Z,6.13
2022-12-26T05:07:55.973Z,5.93
2022-12-26T05:10:27.656Z,6.13
2022-12-26T05:12:56.893Z,5.83
2022-12-26T05:15:25.435Z,6.30
2022-12-26T05:18:14.872Z,5.87
2022-12-26T05:21:00.318Z,6.00
2022-12-26T05:23:47.521Z,7.27
2022-12-26T05:26:36.420Z,4.87
2022-12-26T05:29:05.608Z,13.20
2022-12-26T05:31:36.665Z,5.40
2022-12-26T05:34:06.297Z,5.17
2022-12-26T05:36:39.839Z,8.30
2022-12-26T05:39:09.199Z,7.20
2022-12-26T05:41:38.337Z,7.03
2022-12-26T05:44:07.323Z,4.50
2022-12-26T05:46:36.291Z,4.97
2022-12-26T05:49:06.999Z,4.70
2022-12-26T05:51:35.774Z,5.27
2022-12-26T05:54:04.492Z,5.40
2022-12-26T05:56:32.834Z,6.00
2022-12-26T05:59:02.541Z,5.07
2022-12-26T06:01:31.758Z,6.70
2022-12-26T06:04:01.339Z,5.27
2022-12-26T06:06:31.241Z,3.83
2022-12-26T06:08:59.628Z,8.53
2022-12-26T06:11:28.327Z,4.20
2022-12-26T06:13:57.130Z,5.33
2022-12-26T06:16:25.614Z,5.20
2022-12-26T06:18:55.680Z,3.77
2022-12-26T06:21:24.356Z,4.00
2022-12-26T06:23:54.163Z,4.67
2022-12-26T06:26:22.576Z,4.60
2022-12-26T06:28:50.887Z,5.37
2022-12-26T06:31:21.466Z,5.80
2022-12-26T06:33:51.708Z,4.57
2022-12-26T06:36:22.079Z,6.77
2022-12-26T06:38:51.103Z,4.33
2022-12-26T06:41:22.709Z,5.00
2022-12-26T06:43:51.317Z,5.13
2022-12-26T06:46:21.459Z,5.80
2022-12-26T06:48:50.205Z,7.27
2022-12-26T06:51:20.533Z,7.37
2022-12-26T06:53:49.191Z,8.93
2022-12-26T06:56:19.284Z,9.63
2022-12-26T06:58:49.483Z,10.20
2022-12-26T07:01:20.261Z,9.40
2022-12-26T07:03:51.861Z,12.63
2022-12-26T07:06:25.341Z,10.60
2022-12-26T07:08:54.854Z,11.03
2022-12-26T07:11:25.558Z,11.53
2022-12-26T07:13:56.040Z,12.77
2022-12-26T07:16:25.214Z,14.23
2022-12-26T07:18:55.036Z,16.20
2022-12-26T07:21:24.123Z,17.37
2022-12-26T07:23:53.206Z,18.90
2022-12-26T07:26:21.943Z,19.40
2022-12-26T07:28:50.237Z,19.77
2022-12-26T07:31:20.747Z,27.23
2022-12-26T07:33:49.794Z,32.30
2022-12-26T07:36:18.603Z,36.27
2022-12-26T07:38:46.966Z,39.03
2022-12-26T07:41:33.062Z,46.27
2022-12-26T07:44:01.378Z,49.17
2022-12-26T07:46:31.364Z,47.30
2022-12-26T07:48:59.874Z,39.70
2022-12-26T07:51:28.880Z,33.27
2022-12-26T07:53:57.456Z,26.47
2022-12-26T07:56:26.273Z,23.37
2022-12-26T07:58:54.570Z,21.30
2022-12-26T08:01:22.957Z,19.07
2022-12-26T08:03:53.209Z,18.67
2022-12-26T08:06:21.868Z,18.30
2022-12-26T08:08:51.784Z,17.80
2022-12-26T08:11:23.764Z,18.07
2022-12-26T08:13:53.066Z,18.10
2022-12-26T08:16:23.599Z,17.40
2022-12-26T08:18:53.392Z,15.53
2022-12-26T08:21:21.707Z,15.87
2022-12-26T08:23:50.097Z,16.13
2022-12-26T08:26:23.224Z,15.97
2022-12-26T08:28:52.773Z,15.77
2022-12-26T08:31:22.250Z,17.40
2022-12-26T08:33:52.456Z,17.87
2022-12-26T08:36:20.774Z,16.43
2022-12-26T08:38:49.090Z,15.53
2022-12-26T08:41:18.525Z,13.50
2022-12-26T08:46:38.770Z,11.93
2022-12-26T08:49:08.464Z,10.87
2022-12-26T08:51:36.916Z,10.50
2022-12-26T08:54:05.739Z,9.40
2022-12-26T08:56:34.184Z,10.23
2022-12-26T08:59:02.509Z,8.37
2022-12-26T09:01:32.762Z,12.13
2022-12-26T09:04:02.619Z,14.30
2022-12-26T09:06:34.198Z,15.87
2022-12-26T09:09:02.918Z,16.57
2022-12-26T09:11:31.767Z,17.17
2022-12-26T09:14:01.559Z,17.50
2022-12-26T09:16:37.452Z,18.37
2022-12-26T09:19:07.547Z,17.33
2022-12-26T09:21:37.253Z,16.83
2022-12-26T09:24:07.967Z,16.27
2022-12-26T09:26:36.523Z,16.20
2022-12-26T09:29:05.229Z,15.77
2022-12-26T09:31:35.840Z,15.37
2022-12-26T09:34:05.624Z,15.77
2022-12-26T09:36:39.073Z,16.47
2022-12-26T09:39:08.226Z,16.77
2022-12-26T09:41:59.631Z,16.93
2022-12-26T09:44:41.818Z,17.83
2022-12-26T09:47:23.153Z,16.43
2022-12-26T09:49:56.662Z,16.23
2022-12-26T09:52:44.639Z,16.30
2022-12-26T09:55:28.600Z,14.87
2022-12-26T09:58:01.685Z,18.23
2022-12-26T10:00:34.239Z,21.33
2022-12-26T10:03:03.292Z,19.30
2022-12-26T10:05:37.542Z,19.13
2022-12-26T10:08:19.444Z,19.80
2022-12-26T10:10:55.969Z,18.70
2022-12-26T10:13:34.651Z,14.70
2022-12-26T10:16:10.075Z,11.70
2022-12-26T10:18:50.343Z,9.87
2022-12-26T10:21:32.982Z,7.70
2022-12-26T10:24:08.353Z,8.03
2022-12-26T10:26:39.957Z,6.90
2022-12-26T10:29:17.375Z,5.93
2022-12-26T10:31:49.461Z,9.13
2022-12-26T10:34:21.283Z,6.67
2022-12-26T10:36:52.064Z,9.17
2022-12-26T10:39:27.584Z,8.03
2022-12-26T10:42:00.811Z,8.07
2022-12-26T10:44:29.563Z,6.63
2022-12-26T10:47:20.944Z,10.97
2022-12-26T10:49:49.977Z,9.10
2022-12-26T10:52:20.102Z,8.77
2022-12-26T10:55:28.033Z,6.67
2022-12-26T10:57:45.227Z,6.93
2022-12-26T11:00:20.866Z,7.37
2022-12-26T11:03:04.488Z,8.00
2022-12-26T11:08:26.785Z,7.43
2022-12-26T11:11:06.624Z,6.67
2022-12-26T11:13:39.039Z,9.73
2022-12-26T11:16:09.377Z,8.00
2022-12-26T11:18:40.427Z,7.33
2022-12-26T11:21:14.958Z,6.80
2022-12-26T11:23:43.223Z,8.70
2022-12-26T11:26:23.155Z,8.57
2022-12-26T11:29:07.756Z,7.03
2022-12-26T11:31:37.962Z,8.23
2022-12-26T11:34:10.175Z,8.93
2022-12-26T11:36:41.631Z,7.00
2022-12-26T11:39:23.999Z,8.50
2022-12-26T11:41:55.336Z,7.60
2022-12-26T11:44:27.600Z,8.73
2022-12-26T11:47:00.275Z,10.02
2022-12-26T11:49:33.419Z,9.27
2022-12-26T11:52:04.163Z,6.80
2022-12-26T11:54:36.072Z,7.25
2022-12-26T11:57:20.398Z,6.78
2022-12-26T11:59:49.590Z,8.68
2022-12-26T12:02:28.600Z,8.43
2022-12-26T12:05:01.475Z,8.23
2022-12-26T12:07:49.339Z,7.53
2022-12-26T12:10:47.893Z,13.75
2022-12-26T12:13:28.485Z,11.80
2022-12-26T12:16:03.996Z,11.88
2022-12-26T12:18:41.919Z,9.80
2022-12-26T12:21:19.500Z,11.40
2022-12-26T12:24:11.586Z,7.90
2022-12-26T12:26:54.445Z,11.50
2022-12-26T12:29:39.932Z,7.70
2022-12-26T12:32:14.340Z,9.20
2022-12-26T12:35:02.412Z,10.10
2022-12-26T12:37:38.906Z,11.20
2022-12-26T12:40:24.294Z,7.97
2022-12-26T12:43:01.153Z,10.87
2022-12-26T12:45:34.247Z,9.00
2022-12-26T12:48:38.488Z,10.37
2022-12-26T12:51:18.672Z,9.17
2022-12-26T12:54:22.260Z,5.27
2022-12-26T12:56:59.353Z,5.97
2022-12-26T12:59:35.598Z,6.37
2022-12-26T13:02:20.518Z,7.83
2022-12-26T13:04:53.258Z,7.20
2022-12-26T13:07:27.242Z,6.37
2022-12-26T13:09:59.941Z,10.03
2022-12-26T13:12:31.190Z,9.27
2022-12-26T13:15:02.719Z,8.47
2022-12-26T13:17:37.478Z,6.87
2022-12-26T13:20:13.586Z,9.13
2022-12-26T13:23:03.554Z,8.97
2022-12-26T13:25:44.165Z,8.23
2022-12-26T13:28:19.552Z,7.47
2022-12-26T13:30:55.215Z,6.00
2022-12-26T13:33:25.139Z,7.57
2022-12-26T13:35:56.555Z,9.33
2022-12-26T13:38:25.838Z,6.57
2022-12-26T13:41:19.863Z,5.97
2022-12-26T13:44:01.729Z,7.37
2022-12-26T13:46:56.667Z,5.93
2022-12-26T13:49:36.213Z,7.53
2022-12-26T13:52:33.738Z,7.87
2022-12-26T13:55:42.207Z,10.90
2022-12-26T13:58:26.236Z,8.37
2022-12-26T14:01:00.199Z,7.80
2022-12-26T14:03:49.399Z,8.25
2022-12-26T14:06:45.339Z,7.47
2022-12-26T14:09:34.832Z,9.17
2022-12-26T14:12:27.832Z,7.13
2022-12-26T14:15:08.957Z,7.03
2022-12-26T14:17:48.692Z,8.00
2022-12-26T14:20:37.309Z,7.67
2022-12-26T14:23:21.943Z,7.30
2022-12-26T14:26:06.806Z,5.67
2022-12-26T14:28:51.611Z,6.63
2022-12-26T14:31:28.196Z,6.37
2022-12-26T14:34:06.918Z,6.40
2022-12-26T14:36:48.374Z,6.23
2022-12-26T14:39:29.912Z,7.30
2022-12-26T14:42:36.583Z,8.50
2022-12-26T14:45:13.233Z,7.33
2022-12-26T14:47:44.969Z,6.57
2022-12-26T14:50:36.339Z,9.77
2022-12-26T14:53:34.076Z,8.70
2022-12-26T14:56:05.053Z,9.53
2022-12-26T14:58:42.297Z,10.37
2022-12-26T15:01:48.045Z,11.10
2022-12-26T15:04:46.316Z,12.87
2022-12-26T15:07:53.100Z,8.87
2022-12-26T15:10:52.509Z,9.17
2022-12-26T15:13:53.501Z,10.93
2022-12-26T15:16:39.295Z,10.43
2022-12-26T15:19:44.148Z,9.80
2022-12-26T15:22:35.490Z,7.70
2022-12-26T15:25:38.704Z,7.40
2022-12-26T15:28:36.990Z,8.70
2022-12-26T15:31:39.389Z,7.97
2022-12-26T15:34:28.621Z,7.53
2022-12-26T15:37:02.365Z,10.03
2022-12-26T15:39:38.745Z,9.30
2022-12-26T15:42:25.111Z,9.23
2022-12-26T15:45:03.957Z,9.10
2022-12-26T15:47:39.139Z,11.20
2022-12-26T15:50:28.331Z,7.93
2022-12-26T15:53:09.650Z,9.20
2022-12-26T15:55:56.028Z,9.10
2022-12-26T15:58:47.662Z,9.20
2022-12-26T16:01:37.153Z,7.90
2022-12-26T16:04:10.334Z,8.10
2022-12-26T16:06:51.957Z,12.13
2022-12-26T16:09:40.205Z,9.57
2022-12-26T16:12:26.138Z,8.03
2022-12-26T16:15:16.208Z,11.80
2022-12-26T16:17:46.661Z,7.77
2022-12-26T16:20:42.479Z,9.73
2022-12-26T16:23:15.176Z,9.27
2022-12-26T16:25:48.494Z,9.40
2022-12-26T16:28:17.814Z,13.60
2022-12-26T16:30:46.332Z,11.13
2022-12-26T16:33:16.195Z,11.63
2022-12-26T16:35:46.269Z,12.23
2022-12-26T16:38:21.013Z,13.83
2022-12-26T16:40:51.056Z,13.73
2022-12-26T16:43:27.722Z,13.70
2022-12-26T16:46:00.573Z,15.63
2022-12-26T16:48:32.060Z,20.30
2022-12-26T16:51:03.922Z,18.07
2022-12-26T16:53:45.439Z,16.50
2022-12-26T16:56:26.689Z,13.40
2022-12-26T16:59:04.093Z,10.27
2022-12-26T17:01:33.967Z,10.30
2022-12-26T17:04:05.578Z,9.30
2022-12-26T17:06:38.238Z,10.10
2022-12-26T17:09:10.932Z,11.40
2022-12-26T17:11:46.379Z,8.97
2022-12-26T17:14:21.138Z,8.80
2022-12-26T17:16:58.845Z,12.27
2022-12-26T17:19:30.142Z,8.90
2022-12-26T17:22:29.175Z,12.17
2022-12-26T17:25:20.554Z,12.27
2022-12-26T17:28:09.885Z,10.80
2022-12-26T17:30:39.509Z,9.07
2022-12-26T17:33:13.612Z,10.87
2022-12-26T17:36:38.151Z,13.97
2022-12-26T17:38:33.554Z,14.07
2022-12-26T17:41:05.036Z,14.70
2022-12-26T17:43:35.425Z,15.83
2022-12-26T17:46:05.370Z,16.63
2022-12-26T17:48:34.253Z,16.47
2022-12-26T17:51:05.318Z,15.90
2022-12-26T17:53:37.493Z,17.03
2022-12-26T17:56:08.271Z,14.20
2022-12-26T17:58:36.764Z,16.07
2022-12-26T18:01:05.520Z,17.70
2022-12-26T18:03:33.930Z,23.07
2022-12-26T18:06:02.437Z,24.73
2022-12-26T18:08:35.143Z,25.67
2022-12-26T18:11:04.997Z,28.43
2022-12-26T18:13:33.388Z,40.70
2022-12-26T18:16:02.202Z,43.03
2022-12-26T18:18:35.799Z,37.03
2022-12-26T18:21:05.275Z,32.57
2022-12-26T18:23:34.999Z,30.47
2022-12-26T18:26:07.099Z,39.03
2022-12-26T18:28:36.416Z,57.60
2022-12-26T18:31:04.863Z,117.90
2022-12-26T18:33:33.130Z,93.93
2022-12-26T18:36:07.258Z,70.53
2022-12-26T18:38:37.369Z,54.00
2022-12-26T18:41:05.807Z,45.40
2022-12-26T18:43:34.013Z,35.50
2022-12-26T18:46:02.388Z,27.17
2022-12-26T18:48:30.706Z,25.63
2022-12-26T18:50:59.195Z,22.47
2022-12-26T18:53:27.485Z,21.90
2022-12-26T18:55:57.133Z,20.60
2022-12-26T18:58:25.422Z,20.50
2022-12-26T19:00:53.775Z,20.33
2022-12-26T19:03:22.135Z,19.90
2022-12-26T19:05:50.451Z,18.93
2022-12-26T19:08:18.710Z,19.77
2022-12-26T19:10:47.505Z,16.53
2022-12-26T19:13:17.521Z,17.60
2022-12-26T19:15:49.331Z,20.97
2022-12-26T19:18:17.623Z,18.63
2022-12-26T19:20:46.280Z,20.97
2022-12-26T19:23:14.577Z,20.27
2022-12-26T19:25:42.797Z,18.40
2022-12-26T19:28:11.137Z,14.97
2022-12-26T19:30:40.781Z,15.97
2022-12-26T19:33:09.343Z,14.07
2022-12-26T19:35:37.895Z,16.33
2022-12-26T19:38:06.172Z,19.27
2022-12-26T19:40:34.453Z,21.60
2022-12-26T19:43:02.783Z,22.23
2022-12-26T19:45:31.305Z,19.97
2022-12-26T19:48:01.126Z,21.87
2022-12-26T19:50:29.472Z,27.47
2022-12-26T19:52:57.763Z,24.67
2022-12-26T19:55:26.166Z,23.30
2022-12-26T19:57:54.427Z,21.20
2022-12-26T20:00:23.471Z,19.80
2022-12-26T20:02:51.857Z,19.37
2022-12-26T20:05:21.888Z,20.00
2022-12-26T20:07:50.220Z,22.57
2022-12-26T20:10:19.231Z,19.53
2022-12-26T20:12:47.507Z,23.60
2022-12-26T20:15:15.972Z,25.13
2022-12-26T20:17:44.300Z,24.57
2022-12-26T20:20:12.660Z,23.70
2022-12-26T20:22:42.259Z,20.97
2022-12-26T20:25:10.878Z,20.17
2022-12-26T20:27:40.800Z,17.80
2022-12-26T20:30:10.621Z,16.00
2022-12-26T20:32:39.251Z,15.03
2022-12-26T20:35:08.501Z,13.07
2022-12-26T20:37:36.799Z,12.57
2022-12-26T20:40:07.615Z,12.10
2022-12-26T20:42:35.866Z,11.70
2022-12-26T20:45:04.899Z,12.57
2022-12-26T20:47:33.182Z,12.20
2022-12-26T20:50:01.436Z,13.50
2022-12-26T20:52:29.732Z,10.23
2022-12-26T20:54:58.062Z,14.17
2022-12-26T20:57:27.851Z,12.67
2022-12-26T20:59:56.089Z,12.17
2022-12-26T21:02:24.514Z,9.77
2022-12-26T21:04:53.731Z,9.77
2022-12-26T21:07:22.043Z,10.33
2022-12-26T21:09:50.375Z,12.23
2022-12-26T21:12:18.753Z,9.63
2022-12-26T21:14:48.432Z,11.20
2022-12-26T21:17:18.832Z,10.17
2022-12-26T21:19:47.408Z,11.00
2022-12-26T21:22:15.983Z,10.67
2022-12-26T21:24:44.318Z,10.70
2022-12-26T21:27:12.605Z,9.90
2022-12-26T21:29:41.004Z,10.27
2022-12-26T21:32:10.711Z,9.63
2022-12-26T21:34:39.064Z,9.83
2022-12-26T21:37:24.907Z,10.07
2022-12-26T21:39:53.152Z,9.77
2022-12-26T21:42:21.444Z,10.90
2022-12-26T21:44:49.719Z,9.07
2022-12-26T21:47:19.668Z,10.07
2022-12-26T21:49:48.067Z,11.13
2022-12-26T21:52:16.334Z,9.30
2022-12-26T21:55:02.189Z,10.47
2022-12-26T21:57:31.670Z,11.47
2022-12-26T22:00:00.891Z,10.73
2022-12-26T22:02:50.305Z,9.80
2022-12-26T22:05:20.811Z,10.10
2022-12-26T22:07:52.817Z,9.50
2022-12-26T22:10:38.877Z,10.00
2022-12-26T22:13:08.070Z,10.27
2022-12-26T22:15:53.821Z,10.00
2022-12-26T22:18:23.564Z,8.43
2022-12-26T22:20:51.851Z,10.03
2022-12-26T22:23:20.176Z,9.30
2022-12-26T22:25:54.903Z,10.73
2022-12-26T22:28:23.843Z,8.87
2022-12-26T22:30:52.905Z,8.73
2022-12-26T22:33:22.581Z,8.30
2022-12-26T22:35:50.957Z,7.63
2022-12-26T22:38:19.628Z,7.70
2022-12-26T22:40:56.293Z,8.27
2022-12-26T22:43:25.787Z,8.17
2022-12-26T22:45:54.520Z,8.17
2022-12-26T22:48:25.277Z,9.80
2022-12-26T22:50:56.197Z,10.87
2022-12-26T22:53:25.468Z,9.63
2022-12-26T22:55:58.203Z,10.23
2022-12-26T22:58:26.773Z,8.87
2022-12-26T23:00:55.319Z,9.53
2022-12-26T23:03:26.032Z,7.70
2022-12-26T23:05:55.663Z,6.93
2022-12-26T23:08:25.864Z,8.13
2022-12-26T23:10:55.680Z,7.23
2022-12-26T23:13:24.971Z,6.20
2022-12-26T23:15:57.093Z,9.17
2022-12-26T23:18:51.093Z,8.53
2022-12-26T23:21:45.481Z,7.93
2022-12-26T23:24:17.493Z,7.47
2022-12-26T23:26:48.562Z,7.50
2022-12-26T23:29:38.352Z,6.77
2022-12-26T23:32:07.880Z,8.20
2022-12-26T23:34:38.132Z,10.77
2022-12-26T23:37:06.429Z,7.93
2022-12-26T23:39:34.691Z,7.00
2022-12-26T23:42:03.014Z,6.87
2022-12-26T23:44:32.357Z,9.27
2022-12-26T23:47:00.775Z,6.93
2022-12-26T23:49:29.148Z,8.63
2022-12-26T23:51:58.919Z,8.33
2022-12-26T23:54:27.423Z,10.97
2022-12-26T23:56:55.823Z,9.17
2022-12-26T23:59:24.203Z,8.87
